Calexico, CA

8:32 PM PDT en Septiembre 16, 2014 (GMT -0700)
PROTECCION CIVIL BC (MEXICALI) | Change Station
CLOSE
Current Station
Estación meteorológica personal
Location: Mexicali, BAJA CALIFORNIA
Altura: 0 ft
Estaciones meteorológicas cercanas
Aviso en curso: Special Statement Aviso activo: Public Information Statement

Alt 0 ft 32.63 °N, 115.49 °W | Updated 9 minutes ago

Parcialmente nublado
Parcialmente nublado
92.9 ° F
Sensación térmica 95 ° F
N
7.0
Viento Variable Viento desde SE
Gusts 9.0 mph

Hoy
Alta -- | Baja -- ° F
--% Posibilidad de precipitaciones
Ayer
Alta -- | Baja -- ° F
Precip. -- pul
6:26 AM 6:46 PM
Cuarto menguante, 40% visible
Presión 29.72 pul
Visibilidad 10.0 Millas
Nubes Despejado
Índice de calor 95 ° F
Punto de rocío 65 ° F
Humedad 40%
Precipitaciones 0.00 pul
Espesor de la nieve 0 in , 0 in , 0 in
UV 0.0 de una escala de 12
Polen 8.60 de una escala de 12
Ozono Buena
PM2.5 Buena
Flu Activity No disponible.
METAR KIPL 170253Z AUTO 13007KT 10SM CLR 34/18 A2972 RMK AO2 SLP064 T03390178 53009

More Conditions Fewer Conditions

Presión 29.72 pul
Visibilidad 10.0 Millas
Nubes Despejado
Índice de calor 95 ° F
Punto de rocío 65 ° F
Humedad 40%
Precipitaciones 0.00 pul
Espesor de la nieve 0 in , 0 in , 0 in
UV 0.0 de una escala de 12
Polen 8.60 de una escala de 12
Ozono Buena
PM2.5 Buena
Flu Activity No disponible.
METAR KIPL 170253Z AUTO 13007KT 10SM CLR 34/18 A2972 RMK AO2 SLP064 T03390178 53009

More Conditions Fewer Conditions

10-Day Weather Forecast

Almanac

Astronomía

Sep. 16, 2014 Salida Puesta
Hora real 6:26 AM PDT 6:46 PM PDT
Crepúsculo civil 6:01 AM PDT 7:11 PM PDT
Crepúsculo náutico 5:32 AM PDT 7:40 PM PDT
Crepúsculo astronómico 5:03 AM PDT 8:09 PM PDT
Luna Sin salida de luna 2:00 PM PDT (9/16)
Horas de luz 13h 09m
Horas de luz
12h 20m
Tomorrow will be 2m 0s shorter.
Cuarto menguante, 40% of the Moon is Illuminated
Hoy
Cuarto menguante
Sep 24
Nueva
Oct 1
Cuarto creciente
Oct 8
Luna llena
Oct 15
Cuarto menguante

Extremos de hoy

Máximos del estado Bajos del estado

Community

WunderPhotos

Upload Photos

1,753,954 ¡fotos cargadas!

Nearby

Calidad del aire

  Calidad del aire Índice AQ Contaminante
Ayer Moderada
PM2.5
Ayer Buena
OZONE
Real Buena
PM2.5
Real Buena
OZONE
Martes Buena
OZONE
Miércoles Buena
OZONE
Jueves Buena
OZONE
Viernes Buena
OZONE
Sábado Buena
OZONE
Domingo Buena
OZONE

Grosos de nieve

Estación Profundido Altura
Leavitt Lake 0 in 9400 ft
Spratt Creek 0 in 6200 ft
Monitor Pass 0 in 8350 ft
Leavitt Meadows 0 in 7200 ft
Hagan's Meadow 0 in 8000 ft

Actividad de terremotos

Ciudad Distance Mag. Tiempo y dato
La Quinta, California 78 Millas 2.7 8:59 PM PDT
2014-09-15
San Jacinto, California 113 Millas 3.0 3:16 PM PDT
2014-09-14
Magnitud mínima muestra es 2,5.

Temperaturas de aguas costeras

Lugar Temperatura
Sin partes meteorológicos de las estaciones

Estaciones meteorológicas cercanas